Time,TemperatureF,DewpointF,PressureIn,WindDirection,WindDirectionDegrees,WindSpeedMPH,WindSpeedGustMPH,Humidity,HourlyPrecipIn,Conditions,Clouds,dailyrainin,SoftwareType,DateUTC
2013-05-27 00:01:00,53.8,38.5,30.14,WNW,283,1.0,2.0,56,0.00,,,0.00,WUHU216DAVISVP2,2013-05-27 04:01:00,
2013-05-27 00:06:00,53.6,38.8,30.14,West,274,2.0,3.0,57,0.00,,,0.00,WUHU216DAVISVP2,2013-05-27 04:06:00,
2013-05-27 00:11:00,53.4,38.6,30.13,WNW,287,2.0,4.0,57,0.00,,,0.00,WUHU216DAVISVP2,2013-05-27 04:11:00,
2013-05-27 00:16:00,53.4,38.5,30.14,WNW,286,0.0,5.0,57,0.00,,,0.00,WUHU216DAVISVP2,2013-05-27 04:16:00,
2013-05-27 00:21:00,53.3,38.1,30.14,WNW,288,1.0,5.0,56,0.00,,,0.00,WUHU216DAVISVP2,2013-05-27 04:21:00,
2013-05-27 00:26:00,53.1,38.3,30.14,West,269,1.0,5.0,57,0.00,,,0.00,WUHU216DAVISVP2,2013-05-27 04:26:00,
2013-05-27 00:31:00,53.1,37.9,30.14,NW,304,4.0,4.0,56,0.00,,,0.00,WUHU216DAVISVP2,2013-05-27 04:31:00,
2013-05-27 00:36:00,53.1,37.4,30.14,WNW,283,1.0,4.0,55,0.00,,,0.00,WUHU216DAVISVP2,2013-05-27 04:36:00,
2013-05-27 00:41:00,53.0,37.7,30.13,WNW,288,2.0,5.0,56,0.00,,,0.00,WUHU216DAVISVP2,2013-05-27 04:41:00,
2013-05-27 00:46:00,52.9,37.6,30.13,West,280,1.0,5.0,56,0.00,,,0.00,WUHU216DAVISVP2,2013-05-27 04:46:00,
2013-05-27 00:51:00,52.6,37.9,30.14,WNW,285,2.0,5.0,57,0.00,,,0.00,WUHU216DAVISVP2,2013-05-27 04:51:00,
2013-05-27 00:56:00,52.5,37.8,30.13,West,266,1.0,5.0,57,0.00,,,0.00,WUHU216DAVISVP2,2013-05-27 04:56:00,
2013-05-27 01:01:00,52.2,37.9,30.13,WNW,293,1.0,4.0,58,0.00,,,0.00,WUHU216DAVISVP2,2013-05-27 05:01:00,
2013-05-27 01:06:00,52.0,38.2,30.13,West,264,0.0,4.0,59,0.00,,,0.00,WUHU216DAVISVP2,2013-05-27 05:06:00,
2013-05-27 01:11:00,51.8,38.4,30.14,West,259,1.0,4.0,60,0.00,,,0.00,WUHU216DAVISVP2,2013-05-27 05:11:00,
2013-05-27 01:16:00,51.6,38.2,30.14,WNW,284,1.0,3.0,60,0.00,,,0.00,WUHU216DAVISVP2,2013-05-27 05:16:00,
2013-05-27 01:21:00,51.4,38.1,30.14,WNW,295,1.0,3.0,60,0.00,,,0.00,WUHU216DAVISVP2,2013-05-27 05:21:00,
2013-05-27 01:26:00,51.2,38.3,30.14,West,270,2.0,3.0,61,0.00,,,0.00,WUHU216DAVISVP2,2013-05-27 05:26:00,
2013-05-27 01:31:00,51.0,38.5,30.14,West,264,1.0,4.0,62,0.00,,,0.00,WUHU216DAVISVP2,2013-05-27 05:31:00,
2013-05-27 01:36:00,50.9,38.4,30.14,West,266,1.0,4.0,62,0.00,,,0.00,WUHU216DAVISVP2,2013-05-27 05:36:00,
2013-05-27 01:41:00,50.8,38.8,30.14,West,271,2.0,4.0,63,0.00,,,0.00,WUHU216DAVISVP2,2013-05-27 05:41:00,
2013-05-27 01:46:00,50.7,38.7,30.14,West,269,1.0,4.0,63,0.00,,,0.00,WUHU216DAVISVP2,2013-05-27 05:46:00,
2013-05-27 01:51:00,50.6,38.5,30.14,West,266,1.0,4.0,63,0.00,,,0.00,WUHU216DAVISVP2,2013-05-27 05:51:00,
2013-05-27 01:56:00,50.5,38.4,30.14,West,270,1.0,4.0,63,0.00,,,0.00,WUHU216DAVISVP2,2013-05-27 05:56:00,
2013-05-27 02:01:00,50.3,38.7,30.13,West,269,1.0,4.0,64,0.00,,,0.00,WUHU216DAVISVP2,2013-05-27 06:01:00,
2013-05-27 02:06:00,50.1,38.5,30.13,West,260,2.0,3.0,64,0.00,,,0.00,WUHU216DAVISVP2,2013-05-27 06:06:00,
2013-05-27 02:11:00,49.9,38.7,30.13,West,273,1.0,3.0,65,0.00,,,0.00,WUHU216DAVISVP2,2013-05-27 06:11:00,
2013-05-27 02:16:00,49.6,38.4,30.13,West,278,2.0,2.0,65,0.00,,,0.00,WUHU216DAVISVP2,2013-05-27 06:16:00,
2013-05-27 02:21:00,49.6,38.8,30.13,West,264,1.0,3.0,66,0.00,,,0.00,WUHU216DAVISVP2,2013-05-27 06:21:00,
2013-05-27 02:26:00,49.5,38.3,30.13,West,276,1.0,3.0,65,0.00,,,0.00,WUHU216DAVISVP2,2013-05-27 06:26:00,
2013-05-27 02:31:00,49.6,38.4,30.12,West,276,1.0,5.0,65,0.00,,,0.00,WUHU216DAVISVP2,2013-05-27 06:31:00,
2013-05-27 02:36:00,49.7,38.1,30.12,West,271,1.0,6.0,64,0.00,,,0.00,WUHU216DAVISVP2,2013-05-27 06:36:00,
2013-05-27 02:41:00,49.8,38.5,30.12,WNW,290,1.0,6.0,65,0.00,,,0.00,WUHU216DAVISVP2,2013-05-27 06:41:00,
2013-05-27 02:46:00,49.7,38.5,30.12,West,266,1.0,6.0,65,0.00,,,0.00,WUHU216DAVISVP2,2013-05-27 06:46:00,
2013-05-27 02:51:00,49.6,38.8,30.11,WNW,291,1.0,6.0,66,0.00,,,0.00,WUHU216DAVISVP2,2013-05-27 06:51:00,
2013-05-27 02:56:00,49.5,38.7,30.11,West,276,1.0,5.0,66,0.00,,,0.00,WUHU216DAVISVP2,2013-05-27 06:56:00,
2013-05-27 03:01:00,49.3,38.5,30.11,WNW,293,1.0,5.0,66,0.00,,,0.00,WUHU216DAVISVP2,2013-05-27 07:01:00,
2013-05-27 03:06:00,49.3,38.9,30.11,West,280,1.0,6.0,67,0.00,,,0.00,WUHU216DAVISVP2,2013-05-27 07:06:00,
2013-05-27 03:11:00,49.1,38.7,30.11,WNW,302,3.0,6.0,67,0.00,,,0.00,WUHU216DAVISVP2,2013-05-27 07:11:00,
2013-05-27 03:16:00,49.1,39.1,30.11,West,274,1.0,6.0,68,0.00,,,0.00,WUHU216DAVISVP2,2013-05-27 07:16:00,
2013-05-27 03:21:00,48.9,38.9,30.11,West,263,1.0,4.0,68,0.00,,,0.00,WUHU216DAVISVP2,2013-05-27 07:21:00,
2013-05-27 03:26:00,48.8,39.2,30.11,WNW,288,2.0,5.0,69,0.00,,,0.00,WUHU216DAVISVP2,2013-05-27 07:26:00,
2013-05-27 03:31:00,48.7,39.1,30.11,WNW,290,2.0,5.0,69,0.00,,,0.00,WUHU216DAVISVP2,2013-05-27 07:31:00,
2013-05-27 03:36:00,48.6,39.4,30.11,West,278,1.0,5.0,70,0.00,,,0.00,WUHU216DAVISVP2,2013-05-27 07:36:00,
2013-05-27 03:41:00,48.5,39.3,30.11,WNW,284,2.0,5.0,70,0.00,,,0.00,WUHU216DAVISVP2,2013-05-27 07:41:00,
2013-05-27 03:46:00,48.4,39.2,30.11,West,268,2.0,5.0,70,0.00,,,0.00,WUHU216DAVISVP2,2013-05-27 07:46:00,
2013-05-27 03:51:00,48.3,39.4,30.11,NW,309,3.0,5.0,71,0.00,,,0.00,WUHU216DAVISVP2,2013-05-27 07:51:00,
2013-05-27 03:56:00,48.3,39.4,30.11,West,268,0.0,5.0,71,0.00,,,0.00,WUHU216DAVISVP2,2013-05-27 07:56:00,
2013-05-27 04:01:00,48.1,39.2,30.11,NW,306,3.0,4.0,71,0.00,,,0.00,WUHU216DAVISVP2,2013-05-27 08:01:00,
2013-05-27 04:06:00,48.1,39.6,30.11,WNW,297,2.0,4.0,72,0.00,,,0.00,WUHU216DAVISVP2,2013-05-27 08:06:00,
2013-05-27 04:11:00,48.0,39.5,30.11,West,266,1.0,4.0,72,0.00,,,0.00,WUHU216DAVISVP2,2013-05-27 08:11:00,
2013-05-27 04:16:00,47.9,39.4,30.10,West,273,3.0,4.0,72,0.00,,,0.00,WUHU216DAVISVP2,2013-05-27 08:16:00,
2013-05-27 04:21:00,47.8,39.6,30.10,West,266,1.0,4.0,73,0.00,,,0.00,WUHU216DAVISVP2,2013-05-27 08:21:00,
2013-05-27 04:26:00,47.8,39.6,30.10,WNW,292,1.0,4.0,73,0.00,,,0.00,WUHU216DAVISVP2,2013-05-27 08:26:00,
2013-05-27 04:31:00,47.8,39.6,30.10,West,270,0.0,4.0,73,0.00,,,0.00,WUHU216DAVISVP2,2013-05-27 08:31:00,
2013-05-27 04:36:00,47.9,39.7,30.10,WNW,294,2.0,4.0,73,0.00,,,0.00,WUHU216DAVISVP2,2013-05-27 08:36:00,
2013-05-27 04:41:00,47.9,39.7,30.10,West,271,1.0,5.0,73,0.00,,,0.00,WUHU216DAVISVP2,2013-05-27 08:41:00,
2013-05-27 04:46:00,47.8,39.6,30.10,West,274,1.0,5.0,73,0.00,,,0.00,WUHU216DAVISVP2,2013-05-27 08:46:00,
2013-05-27 04:51:00,47.7,39.9,30.10,West,271,1.0,5.0,74,0.00,,,0.00,WUHU216DAVISVP2,2013-05-27 08:51:00,
2013-05-27 04:56:00,47.5,39.7,30.10,West,274,2.0,5.0,74,0.00,,,0.00,WUHU216DAVISVP2,2013-05-27 08:56:00,
2013-05-27 05:01:00,47.4,39.6,30.10,WNW,302,3.0,3.0,74,0.00,,,0.00,WUHU216DAVISVP2,2013-05-27 09:01:00,
2013-05-27 05:06:00,47.4,39.9,30.10,NW,305,1.0,3.0,75,0.00,,,0.00,WUHU216DAVISVP2,2013-05-27 09:06:00,
2013-05-27 05:11:00,47.2,39.7,30.10,WNW,288,1.0,4.0,75,0.00,,,0.00,WUHU216DAVISVP2,2013-05-27 09:11:00,
2013-05-27 05:16:00,47.2,39.7,30.10,West,273,1.0,4.0,75,0.00,,,0.00,WUHU216DAVISVP2,2013-05-27 09:16:00,
2013-05-27 05:21:00,47.0,39.9,30.10,WNW,297,2.0,4.0,76,0.00,,,0.00,WUHU216DAVISVP2,2013-05-27 09:21:00,
2013-05-27 05:26:00,46.9,39.8,30.10,West,266,1.0,5.0,76,0.00,,,0.00,WUHU216DAVISVP2,2013-05-27 09:26:00,
2013-05-27 05:31:00,46.8,39.7,30.10,WNW,291,2.0,5.0,76,0.00,,,0.00,WUHU216DAVISVP2,2013-05-27 09:31:00,
2013-05-27 05:36:00,46.6,39.8,30.10,WNW,293,1.0,5.0,77,0.00,,,0.00,WUHU216DAVISVP2,2013-05-27 09:36:00,
2013-05-27 05:41:00,46.4,39.6,30.10,West,281,1.0,3.0,77,0.00,,,0.00,WUHU216DAVISVP2,2013-05-27 09:41:00,
2013-05-27 05:46:00,46.3,39.9,30.10,West,273,2.0,3.0,78,0.00,,,0.00,WUHU216DAVISVP2,2013-05-27 09:46:00,
2013-05-27 05:51:00,46.1,39.7,30.10,WNW,290,1.0,3.0,78,0.00,,,0.00,WUHU216DAVISVP2,2013-05-27 09:51:00,
2013-05-27 05:56:00,46.1,40.0,30.10,WNW,291,1.0,4.0,79,0.00,,,0.00,WUHU216DAVISVP2,2013-05-27 09:56:00,
2013-05-27 06:01:00,46.0,39.9,30.10,West,263,1.0,4.0,79,0.00,,,0.00,WUHU216DAVISVP2,2013-05-27 10:01:00,
2013-05-27 06:06:00,45.9,39.8,30.10,West,266,1.0,4.0,79,0.00,,,0.00,WUHU216DAVISVP2,2013-05-27 10:06:00,
2013-05-27 06:11:00,45.7,39.9,30.09,WNW,302,3.0,3.0,80,0.00,,,0.00,WUHU216DAVISVP2,2013-05-27 10:11:00,
2013-05-27 06:16:00,45.7,39.9,30.09,WNW,290,2.0,4.0,80,0.00,,,0.00,WUHU216DAVISVP2,2013-05-27 10:16:00,
2013-05-27 06:21:00,45.9,40.1,30.09,WNW,294,1.0,4.0,80,0.00,,,0.00,WUHU216DAVISVP2,2013-05-27 10:21:00,
2013-05-27 06:26:00,46.0,39.9,30.09,West,260,2.0,6.0,79,0.00,,,0.00,WUHU216DAVISVP2,2013-05-27 10:26:00,
2013-05-27 06:31:00,46.2,40.1,30.09,WNW,283,1.0,6.0,79,0.00,,,0.00,WUHU216DAVISVP2,2013-05-27 10:31:00,
2013-05-27 06:36:00,46.3,40.2,30.09,WNW,285,2.0,6.0,79,0.00,,,0.00,WUHU216DAVISVP2,2013-05-27 10:36:00,
2013-05-27 06:41:00,46.3,40.2,30.10,WNW,291,1.0,6.0,79,0.00,,,0.00,WUHU216DAVISVP2,2013-05-27 10:41:00,
2013-05-27 06:46:00,46.3,40.2,30.10,West,266,1.0,3.0,79,0.00,,,0.00,WUHU216DAVISVP2,2013-05-27 10:46:00,
2013-05-27 06:51:00,46.5,40.4,30.11,West,270,1.0,4.0,79,0.00,,,0.00,WUHU216DAVISVP2,2013-05-27 10:51:00,
2013-05-27 06:56:00,46.7,40.6,30.10,WNW,285,2.0,4.0,79,0.00,,,0.00,WUHU216DAVISVP2,2013-05-27 10:56:00,
2013-05-27 07:01:00,46.9,40.4,30.11,West,269,2.0,5.0,78,0.00,,,0.00,WUHU216DAVISVP2,2013-05-27 11:01:00,
2013-05-27 07:06:00,47.3,40.8,30.11,West,263,2.0,5.0,78,0.00,,,0.00,WUHU216DAVISVP2,2013-05-27 11:06:00,
2013-05-27 07:11:00,47.7,40.9,30.11,West,263,2.0,5.0,77,0.00,,,0.00,WUHU216DAVISVP2,2013-05-27 11:11:00,
2013-05-27 07:16:00,48.4,41.2,30.11,West,262,4.0,5.0,76,0.00,,,0.00,WUHU216DAVISVP2,2013-05-27 11:16:00,
2013-05-27 07:21:00,49.0,41.5,30.10,West,276,3.0,6.0,75,0.00,,,0.00,WUHU216DAVISVP2,2013-05-27 11:21:00,
2013-05-27 07:26:00,49.5,41.6,30.10,WNW,288,3.0,6.0,74,0.00,,,0.00,WUHU216DAVISVP2,2013-05-27 11:26:00,
2013-05-27 07:31:00,49.9,41.7,30.10,West,276,2.0,6.0,73,0.00,,,0.00,WUHU216DAVISVP2,2013-05-27 11:31:00,
2013-05-27 07:36:00,50.4,41.8,30.09,West,262,2.0,9.0,72,0.00,,,0.00,WUHU216DAVISVP2,2013-05-27 11:36:00,
2013-05-27 07:41:00,51.1,42.5,30.09,NW,312,3.0,9.0,72,0.00,,,0.00,WUHU216DAVISVP2,2013-05-27 11:41:00,
2013-05-27 07:46:00,51.5,41.8,30.09,WNW,291,4.0,9.0,69,0.00,,,0.00,WUHU216DAVISVP2,2013-05-27 11:46:00,
2013-05-27 07:51:00,51.9,42.2,30.09,WNW,300,4.0,9.0,69,0.00,,,0.00,WUHU216DAVISVP2,2013-05-27 11:51:00,
2013-05-27 07:56:00,51.9,41.8,30.09,WSW,250,2.0,8.0,68,0.00,,,0.00,WUHU216DAVISVP2,2013-05-27 11:56:00,
2013-05-27 08:01:00,51.9,41.8,30.09,West,260,2.0,8.0,68,0.00,,,0.00,WUHU216DAVISVP2,2013-05-27 12:01:00,
2013-05-27 08:06:00,51.8,41.7,30.09,West,277,2.0,7.0,68,0.00,,,0.00,WUHU216DAVISVP2,2013-05-27 12:06:00,
2013-05-27 08:11:00,51.7,41.6,30.09,WNW,294,6.0,11.0,68,0.00,,,0.00,WUHU216DAVISVP2,2013-05-27 12:11:00,
2013-05-27 08:16:00,51.7,41.6,30.09,West,278,2.0,11.0,68,0.00,,,0.00,WUHU216DAVISVP2,2013-05-27 12:16:00,
2013-05-27 08:21:00,51.8,41.7,30.09,NW,305,4.0,11.0,68,0.00,,,0.00,WUHU216DAVISVP2,2013-05-27 12:21:00,
2013-05-27 08:26:00,51.9,41.8,30.09,WNW,290,4.0,11.0,68,0.00,,,0.00,WUHU216DAVISVP2,2013-05-27 12:26:00,
2013-05-27 08:31:00,52.1,41.6,30.09,NW,310,8.0,9.0,67,0.00,,,0.00,WUHU216DAVISVP2,2013-05-27 12:31:00,
2013-05-27 08:36:00,52.4,42.3,30.09,WNW,298,4.0,9.0,68,0.00,,,0.00,WUHU216DAVISVP2,2013-05-27 12:36:00,
2013-05-27 08:41:00,52.6,42.5,30.09,West,275,4.0,9.0,68,0.00,,,0.00,WUHU216DAVISVP2,2013-05-27 12:41:00,
2013-05-27 08:46:00,52.9,42.4,30.09,West,264,5.0,9.0,67,0.00,,,0.00,WUHU216DAVISVP2,2013-05-27 12:46:00,
2013-05-27 08:51:00,53.1,42.5,30.10,WNW,295,2.0,9.0,67,0.00,,,0.00,WUHU216DAVISVP2,2013-05-27 12:51:00,
2013-05-27 08:56:00,53.5,42.5,30.09,WNW,298,4.0,8.0,66,0.00,,,0.00,WUHU216DAVISVP2,2013-05-27 12:56:00,
2013-05-27 09:01:00,54.0,43.0,30.09,West,260,4.0,10.0,66,0.00,,,0.00,WUHU216DAVISVP2,2013-05-27 13:01:00,
2013-05-27 09:06:00,54.9,43.1,30.09,NNW,333,5.0,10.0,64,0.00,,,0.00,WUHU216DAVISVP2,2013-05-27 13:06:00,
2013-05-27 09:11:00,55.7,43.4,30.09,West,271,3.0,11.0,63,0.00,,,0.00,WUHU216DAVISVP2,2013-05-27 13:11:00,
2013-05-27 09:16:00,56.1,42.5,30.09,WNW,284,5.0,11.0,60,0.00,,,0.00,WUHU216DAVISVP2,2013-05-27 13:16:00,
2013-05-27 09:21:00,56.3,43.1,30.09,WNW,296,5.0,11.0,61,0.00,,,0.00,WUHU216DAVISVP2,2013-05-27 13:21:00,
2013-05-27 09:26:00,56.7,43.9,30.09,West,259,1.0,11.0,62,0.00,,,0.00,WUHU216DAVISVP2,2013-05-27 13:26:00,
2013-05-27 09:31:00,57.1,43.5,30.09,WNW,298,5.0,11.0,60,0.00,,,0.00,WUHU216DAVISVP2,2013-05-27 13:31:00,
2013-05-27 09:36:00,57.4,43.3,30.09,West,277,2.0,8.0,59,0.00,,,0.00,WUHU216DAVISVP2,2013-05-27 13:36:00,
2013-05-27 09:41:00,57.6,43.9,30.09,NW,307,5.0,8.0,60,0.00,,,0.00,WUHU216DAVISVP2,2013-05-27 13:41:00,
2013-05-27 09:46:00,57.8,43.2,30.09,NW,326,2.0,9.0,58,0.00,,,0.00,WUHU216DAVISVP2,2013-05-27 13:46:00,
2013-05-27 09:51:00,57.8,42.3,30.09,WNW,300,6.0,10.0,56,0.00,,,0.00,WUHU216DAVISVP2,2013-05-27 13:51:00,
2013-05-27 09:56:00,57.8,42.8,30.08,NW,315,7.0,10.0,57,0.00,,,0.00,WUHU216DAVISVP2,2013-05-27 13:56:00,
2013-05-27 10:01:00,57.7,41.7,30.08,NW,305,6.0,14.0,55,0.00,,,0.00,WUHU216DAVISVP2,2013-05-27 14:01:00,
2013-05-27 10:06:00,57.8,41.8,30.08,NNW,343,6.0,14.0,55,0.00,,,0.00,WUHU216DAVISVP2,2013-05-27 14:06:00,
2013-05-27 10:11:00,57.8,42.3,30.08,WNW,300,4.0,14.0,56,0.00,,,0.00,WUHU216DAVISVP2,2013-05-27 14:11:00,
2013-05-27 10:16:00,57.9,42.4,30.07,WNW,300,3.0,14.0,56,0.00,,,0.00,WUHU216DAVISVP2,2013-05-27 14:16:00,
2013-05-27 10:21:00,57.7,41.7,30.07,NW,316,7.0,14.0,55,0.00,,,0.00,WUHU216DAVISVP2,2013-05-27 14:21:00,
2013-05-27 10:26:00,57.7,42.2,30.07,WSW,257,4.0,14.0,56,0.00,,,0.00,WUHU216DAVISVP2,2013-05-27 14:26:00,
2013-05-27 10:31:00,57.6,42.1,30.07,WNW,286,4.0,14.0,56,0.00,,,0.00,WUHU216DAVISVP2,2013-05-27 14:31:00,
2013-05-27 10:36:00,57.7,42.7,30.07,NW,311,3.0,14.0,57,0.00,,,0.00,WUHU216DAVISVP2,2013-05-27 14:36:00,
2013-05-27 10:41:00,57.6,42.1,30.07,West,266,6.0,13.0,56,0.00,,,0.00,WUHU216DAVISVP2,2013-05-27 14:41:00,
2013-05-27 10:46:00,57.8,41.8,30.06,West,278,5.0,13.0,55,0.00,,,0.00,WUHU216DAVISVP2,2013-05-27 14:46:00,
2013-05-27 10:51:00,58.0,42.5,30.06,WNW,298,3.0,12.0,56,0.00,,,0.00,WUHU216DAVISVP2,2013-05-27 14:51:00,
2013-05-27 10:56:00,58.3,43.7,30.06,West,261,3.0,12.0,58,0.00,,,0.00,WUHU216DAVISVP2,2013-05-27 14:56:00,
2013-05-27 11:01:00,58.7,42.6,30.05,WNW,302,3.0,13.0,55,0.00,,,0.00,WUHU216DAVISVP2,2013-05-27 15:01:00,
2013-05-27 11:06:00,58.9,41.8,30.05,WNW,301,4.0,15.0,53,0.00,,,0.00,WUHU216DAVISVP2,2013-05-27 15:06:00,
2013-05-27 11:11:00,59.2,41.6,30.05,NW,312,9.0,15.0,52,0.00,,,0.00,WUHU216DAVISVP2,2013-05-27 15:11:00,
2013-05-27 11:16:00,59.5,41.4,30.05,NW,321,7.0,15.0,51,0.00,,,0.00,WUHU216DAVISVP2,2013-05-27 15:16:00,
2013-05-27 11:21:00,59.7,41.6,30.05,NNW,330,3.0,15.0,51,0.00,,,0.00,WUHU216DAVISVP2,2013-05-27 15:21:00,
2013-05-27 11:26:00,60.0,41.8,30.05,NW,307,4.0,16.0,51,0.00,,,0.00,WUHU216DAVISVP2,2013-05-27 15:26:00,
2013-05-27 11:31:00,60.0,40.8,30.05,WNW,296,9.0,18.0,49,0.00,,,0.00,WUHU216DAVISVP2,2013-05-27 15:31:00,
2013-05-27 11:36:00,60.0,40.8,30.05,NW,314,6.0,18.0,49,0.00,,,0.00,WUHU216DAVISVP2,2013-05-27 15:36:00,
2013-05-27 11:41:00,59.9,40.7,30.05,NNW,334,6.0,19.0,49,0.00,,,0.00,WUHU216DAVISVP2,2013-05-27 15:41:00,
2013-05-27 11:46:00,59.8,40.0,30.05,WNW,285,6.0,19.0,48,0.00,,,0.00,WUHU216DAVISVP2,2013-05-27 15:46:00,
2013-05-27 11:51:00,59.8,41.1,30.05,NNW,339,2.0,19.0,50,0.00,,,0.00,WUHU216DAVISVP2,2013-05-27 15:51:00,
2013-05-27 11:56:00,59.9,41.2,30.05,NNE,26,5.0,19.0,50,0.00,,,0.00,WUHU216DAVISVP2,2013-05-27 15:56:00,
2013-05-27 12:01:00,60.0,41.3,30.04,North,350,3.0,17.0,50,0.00,,,0.00,WUHU216DAVISVP2,2013-05-27 16:01:00,
2013-05-27 12:06:00,60.3,41.6,30.04,NW,323,2.0,16.0,50,0.00,,,0.00,WUHU216DAVISVP2,2013-05-27 16:06:00,
2013-05-27 12:11:00,60.2,42.0,30.04,WNW,284,7.0,16.0,51,0.00,,,0.00,WUHU216DAVISVP2,2013-05-27 16:11:00,
2013-05-27 12:16:00,60.0,41.3,30.04,NW,305,5.0,16.0,50,0.00,,,0.00,WUHU216DAVISVP2,2013-05-27 16:16:00,
2013-05-27 12:21:00,59.8,41.7,30.03,NNW,335,8.0,16.0,51,0.00,,,0.00,WUHU216DAVISVP2,2013-05-27 16:21:00,
2013-05-27 12:26:00,59.5,41.4,30.03,NW,316,11.0,16.0,51,0.00,,,0.00,WUHU216DAVISVP2,2013-05-27 16:26:00,
2013-05-27 12:31:00,59.2,41.6,30.04,WNW,291,1.0,14.0,52,0.00,,,0.00,WUHU216DAVISVP2,2013-05-27 16:31:00,
2013-05-27 12:36:00,59.1,41.0,30.04,NNW,347,13.0,16.0,51,0.00,,,0.00,WUHU216DAVISVP2,2013-05-27 16:36:00,
2013-05-27 12:41:00,58.9,40.8,30.03,NNW,346,3.0,17.0,51,0.00,,,0.00,WUHU216DAVISVP2,2013-05-27 16:41:00,
2013-05-27 12:46:00,58.8,41.2,30.04,NNW,335,5.0,17.0,52,0.00,,,0.00,WUHU216DAVISVP2,2013-05-27 16:46:00,
2013-05-27 12:51:00,58.9,41.3,30.04,NNW,341,9.0,17.0,52,0.00,,,0.00,WUHU216DAVISVP2,2013-05-27 16:51:00,
2013-05-27 12:56:00,58.9,41.8,30.04,WNW,300,2.0,16.0,53,0.00,,,0.00,WUHU216DAVISVP2,2013-05-27 16:56:00,
2013-05-27 13:01:00,59.2,42.1,30.03,North,351,4.0,14.0,53,0.00,,,0.00,WUHU216DAVISVP2,2013-05-27 17:01:00,
2013-05-27 13:06:00,59.5,42.4,30.03,NW,311,8.0,14.0,53,0.00,,,0.00,WUHU216DAVISVP2,2013-05-27 17:06:00,
2013-05-27 13:11:00,59.5,42.4,30.03,WNW,297,9.0,15.0,53,0.00,,,0.00,WUHU216DAVISVP2,2013-05-27 17:11:00,
2013-05-27 13:16:00,59.5,42.4,30.03,NW,304,1.0,15.0,53,0.00,,,0.00,WUHU216DAVISVP2,2013-05-27 17:16:00,
2013-05-27 13:21:00,59.3,43.2,30.03,NW,314,10.0,15.0,55,0.00,,,0.00,WUHU216DAVISVP2,2013-05-27 17:21:00,
2013-05-27 13:26:00,59.1,43.0,30.03,NNW,335,8.0,15.0,55,0.00,,,0.00,WUHU216DAVISVP2,2013-05-27 17:26:00,
2013-05-27 13:31:00,58.9,42.8,30.04,WNW,300,9.0,14.0,55,0.00,,,0.00,WUHU216DAVISVP2,2013-05-27 17:31:00,
2013-05-27 13:36:00,58.8,42.7,30.03,WNW,297,6.0,15.0,55,0.00,,,0.00,WUHU216DAVISVP2,2013-05-27 17:36:00,
2013-05-27 13:41:00,58.8,43.2,30.03,WNW,293,3.0,15.0,56,0.00,,,0.00,WUHU216DAVISVP2,2013-05-27 17:41:00,
2013-05-27 13:46:00,58.8,42.7,30.03,NW,309,4.0,14.0,55,0.00,,,0.00,WUHU216DAVISVP2,2013-05-27 17:46:00,
2013-05-27 13:51:00,58.8,42.7,30.03,West,280,3.0,14.0,55,0.00,,,0.00,WUHU216DAVISVP2,2013-05-27 17:51:00,
2013-05-27 13:56:00,58.9,43.3,30.03,WNW,300,8.0,12.0,56,0.00,,,0.00,WUHU216DAVISVP2,2013-05-27 17:56:00,
2013-05-27 14:01:00,58.9,43.3,30.03,NW,311,7.0,12.0,56,0.00,,,0.00,WUHU216DAVISVP2,2013-05-27 18:01:00,
2013-05-27 14:06:00,58.9,43.8,30.03,NW,321,2.0,12.0,57,0.00,,,0.00,WUHU216DAVISVP2,2013-05-27 18:06:00,
2013-05-27 14:11:00,59.0,44.3,30.03,NW,307,2.0,12.0,58,0.00,,,0.00,WUHU216DAVISVP2,2013-05-27 18:11:00,
2013-05-27 14:16:00,59.0,43.4,30.03,NW,326,4.0,14.0,56,0.00,,,0.00,WUHU216DAVISVP2,2013-05-27 18:16:00,
2013-05-27 14:21:00,58.8,43.7,30.03,NW,305,6.0,14.0,57,0.00,,,0.00,WUHU216DAVISVP2,2013-05-27 18:21:00,
2013-05-27 14:26:00,58.6,43.0,30.03,NNW,340,11.0,14.0,56,0.00,,,0.00,WUHU216DAVISVP2,2013-05-27 18:26:00,
2013-05-27 14:31:00,58.6,43.5,30.02,NNW,341,6.0,14.0,57,0.00,,,0.00,WUHU216DAVISVP2,2013-05-27 18:31:00,
2013-05-27 14:36:00,58.5,43.9,30.02,WNW,298,10.0,19.0,58,0.00,,,0.00,WUHU216DAVISVP2,2013-05-27 18:36:00,
2013-05-27 14:41:00,58.4,43.8,30.02,West,277,3.0,19.0,58,0.00,,,0.00,WUHU216DAVISVP2,2013-05-27 18:41:00,
2013-05-27 14:46:00,58.3,43.7,30.02,NNW,334,3.0,19.0,58,0.00,,,0.00,WUHU216DAVISVP2,2013-05-27 18:46:00,
2013-05-27 14:51:00,58.2,44.1,30.02,NW,305,6.0,13.0,59,0.00,,,0.00,WUHU216DAVISVP2,2013-05-27 18:51:00,
2013-05-27 14:56:00,57.9,43.8,30.02,NW,318,9.0,13.0,59,0.00,,,0.00,WUHU216DAVISVP2,2013-05-27 18:56:00,
2013-05-27 15:01:00,57.7,44.5,30.02,NW,315,7.0,14.0,61,0.00,,,0.00,WUHU216DAVISVP2,2013-05-27 19:01:00,
2013-05-27 15:06:00,57.3,44.9,30.02,NW,318,4.0,15.0,63,0.00,,,0.00,WUHU216DAVISVP2,2013-05-27 19:06:00,
2013-05-27 15:11:00,57.0,45.5,30.02,NW,326,9.0,15.0,65,0.00,,,0.00,WUHU216DAVISVP2,2013-05-27 19:11:00,
2013-05-27 15:16:00,56.6,45.9,30.02,WNW,295,4.0,15.0,67,0.00,,,0.00,WUHU216DAVISVP2,2013-05-27 19:16:00,
2013-05-27 15:21:00,56.3,46.4,30.02,NW,319,8.0,15.0,69,0.00,,,0.00,WUHU216DAVISVP2,2013-05-27 19:21:00,
2013-05-27 15:26:00,56.1,46.2,30.02,West,281,7.0,15.0,69,0.00,,,0.00,WUHU216DAVISVP2,2013-05-27 19:26:00,
2013-05-27 15:31:00,55.9,46.0,30.02,NNW,347,6.0,19.0,69,0.00,,,0.00,WUHU216DAVISVP2,2013-05-27 19:31:00,
2013-05-27 15:36:00,55.8,46.3,30.01,NW,309,5.0,19.0,70,0.00,,,0.00,WUHU216DAVISVP2,2013-05-27 19:36:00,
2013-05-27 15:42:00,55.6,46.5,30.01,NW,326,2.0,19.0,71,0.00,,,0.00,WUHU216DAVISVP2,2013-05-27 19:42:00,
2013-05-27 15:46:00,55.3,46.9,30.01,WNW,303,10.0,19.0,73,0.00,,,0.00,WUHU216DAVISVP2,2013-05-27 19:46:00,
2013-05-27 15:51:00,54.9,47.2,30.01,West,263,4.0,17.0,75,0.00,,,0.00,WUHU216DAVISVP2,2013-05-27 19:51:00,
2013-05-27 15:57:00,54.8,47.1,30.01,WNW,295,6.0,17.0,75,0.00,,,0.00,WUHU216DAVISVP2,2013-05-27 19:57:00,
2013-05-27 16:01:00,54.5,47.2,30.01,NW,321,4.0,17.0,76,0.00,,,0.00,WUHU216DAVISVP2,2013-05-27 20:01:00,
2013-05-27 16:06:00,54.1,47.5,30.01,NNW,330,7.0,17.0,78,0.00,,,0.00,WUHU216DAVISVP2,2013-05-27 20:06:00,
2013-05-27 16:12:00,53.7,47.7,30.00,WNW,293,3.0,15.0,80,0.00,,,0.00,WUHU216DAVISVP2,2013-05-27 20:12:00,
2013-05-27 16:17:00,53.6,47.9,30.00,West,269,6.0,15.0,81,0.00,,,0.00,WUHU216DAVISVP2,2013-05-27 20:17:00,
2013-05-27 16:22:00,53.3,48.0,30.00,WNW,291,3.0,15.0,82,0.00,,,0.00,WUHU216DAVISVP2,2013-05-27 20:22:00,
2013-05-27 16:27:00,52.9,47.9,29.99,WSW,255,8.0,15.0,83,0.00,,,0.00,WUHU216DAVISVP2,2013-05-27 20:27:00,
2013-05-27 16:32:00,52.4,48.0,29.99,NW,325,8.0,15.0,85,0.00,,,0.00,WUHU216DAVISVP2,2013-05-27 20:32:00,
2013-05-27 16:37:00,52.1,48.3,29.99,West,281,9.0,14.0,87,0.00,,,0.00,WUHU216DAVISVP2,2013-05-27 20:37:00,
2013-05-27 16:42:00,51.8,48.3,29.99,NNE,30,8.0,14.0,88,0.00,,,0.00,WUHU216DAVISVP2,2013-05-27 20:42:00,
2013-05-27 16:47:00,51.5,48.0,29.98,NW,306,7.0,14.0,88,0.00,,,0.00,WUHU216DAVISVP2,2013-05-27 20:47:00,
2013-05-27 16:52:00,51.2,48.0,29.98,NW,316,4.0,13.0,89,0.00,,,0.00,WUHU216DAVISVP2,2013-05-27 20:52:00,
2013-05-27 16:57:00,51.2,48.3,29.97,WNW,292,7.0,13.0,90,0.00,,,0.00,WUHU216DAVISVP2,2013-05-27 20:57:00,
2013-05-27 17:02:00,51.0,47.8,29.97,SE,143,3.0,13.0,89,0.00,,,0.00,WUHU216DAVISVP2,2013-05-27 21:02:00,
2013-05-27 17:07:00,50.6,47.4,29.97,WNW,301,10.0,13.0,89,0.00,,,0.00,WUHU216DAVISVP2,2013-05-27 21:07:00,
2013-05-27 17:12:00,50.3,47.4,29.97,NW,307,8.0,13.0,90,0.00,,,0.00,WUHU216DAVISVP2,2013-05-27 21:12:00,
2013-05-27 17:17:00,50.2,47.3,29.97,WNW,285,4.0,13.0,90,0.00,,,0.00,WUHU216DAVISVP2,2013-05-27 21:17:00,
2013-05-27 17:22:00,50.2,47.3,29.97,WNW,284,8.0,13.0,90,0.00,,,0.00,WUHU216DAVISVP2,2013-05-27 21:22:00,
2013-05-27 17:27:00,50.1,47.0,29.97,WNW,287,6.0,12.0,89,0.00,,,0.00,WUHU216DAVISVP2,2013-05-27 21:27:00,
2013-05-27 17:32:00,50.1,47.0,29.97,NW,310,2.0,13.0,89,0.00,,,0.00,WUHU216DAVISVP2,2013-05-27 21:32:00,
2013-05-27 17:37:00,50.2,47.1,29.97,WNW,302,5.0,13.0,89,0.00,,,0.00,WUHU216DAVISVP2,2013-05-27 21:37:00,
2013-05-27 17:42:00,50.2,47.1,29.96,WNW,294,3.0,18.0,89,0.00,,,0.00,WUHU216DAVISVP2,2013-05-27 21:42:00,
2013-05-27 17:47:00,50.2,47.1,29.96,WNW,292,5.0,18.0,89,0.00,,,0.00,WUHU216DAVISVP2,2013-05-27 21:47:00,
2013-05-27 17:52:00,50.1,47.2,29.96,NW,313,12.0,18.0,90,0.00,,,0.00,WUHU216DAVISVP2,2013-05-27 21:52:00,
2013-05-27 17:57:00,50.0,47.2,29.96,NW,325,4.0,18.0,90,0.00,,,0.00,WUHU216DAVISVP2,2013-05-27 21:57:00,
2013-05-27 18:02:00,50.0,47.5,29.96,West,269,4.0,16.0,91,0.00,,,0.00,WUHU216DAVISVP2,2013-05-27 22:02:00,
2013-05-27 18:07:00,49.9,47.4,29.96,NNW,330,3.0,16.0,91,0.00,,,0.00,WUHU216DAVISVP2,2013-05-27 22:07:00,
2013-05-27 18:12:00,49.9,47.6,29.95,WNW,283,1.0,15.0,92,0.00,,,0.00,WUHU216DAVISVP2,2013-05-27 22:12:00,
2013-05-27 18:17:00,49.8,47.5,29.95,West,278,3.0,14.0,92,0.00,,,0.00,WUHU216DAVISVP2,2013-05-27 22:17:00,
2013-05-27 18:22:00,49.6,47.6,29.95,NW,308,7.0,13.0,93,0.00,,,0.00,WUHU216DAVISVP2,2013-05-27 22:22:00,
2013-05-27 18:27:00,49.5,47.5,29.95,WNW,284,7.0,13.0,93,0.00,,,0.00,WUHU216DAVISVP2,2013-05-27 22:27:00,
2013-05-27 18:32:00,49.5,47.8,29.95,NW,315,6.0,13.0,94,0.00,,,0.00,WUHU216DAVISVP2,2013-05-27 22:32:00,
2013-05-27 18:37:00,49.4,47.7,29.95,WNW,297,11.0,12.0,94,0.00,,,0.00,WUHU216DAVISVP2,2013-05-27 22:37:00,
2013-05-27 18:42:00,49.4,48.0,29.95,NW,305,5.0,12.0,95,0.00,,,0.00,WUHU216DAVISVP2,2013-05-27 22:42:00,
2013-05-27 18:47:00,49.4,48.0,29.94,WNW,288,6.0,12.0,95,0.01,,,0.01,WUHU216DAVISVP2,2013-05-27 22:47:00,
2013-05-27 18:52:00,49.4,48.0,29.94,WNW,300,3.0,12.0,95,0.01,,,0.01,WUHU216DAVISVP2,2013-05-27 22:52:00,
2013-05-27 18:57:00,49.3,47.9,29.94,WNW,300,7.0,12.0,95,0.01,,,0.01,WUHU216DAVISVP2,2013-05-27 22:57:00,
2013-05-27 19:02:00,49.3,47.9,29.93,WNW,295,4.0,11.0,95,0.01,,,0.01,WUHU216DAVISVP2,2013-05-27 23:02:00,
2013-05-27 19:07:00,49.4,48.3,29.93,NNW,336,3.0,11.0,96,0.01,,,0.01,WUHU216DAVISVP2,2013-05-27 23:07:00,
2013-05-27 19:12:00,49.5,48.4,29.92,NW,306,9.0,12.0,96,0.01,,,0.01,WUHU216DAVISVP2,2013-05-27 23:12:00,
2013-05-27 19:17:00,49.5,48.4,29.92,West,280,4.0,15.0,96,0.01,,,0.01,WUHU216DAVISVP2,2013-05-27 23:17:00,
2013-05-27 19:22:00,49.6,48.5,29.92,WNW,294,3.0,15.0,96,0.01,,,0.01,WUHU216DAVISVP2,2013-05-27 23:22:00,
2013-05-27 19:27:00,49.7,48.6,29.91,West,261,3.0,15.0,96,0.01,,,0.01,WUHU216DAVISVP2,2013-05-27 23:27:00,
2013-05-27 19:32:00,49.6,48.2,29.91,West,269,6.0,15.0,95,0.01,,,0.01,WUHU216DAVISVP2,2013-05-27 23:32:00,
2013-05-27 19:37:00,49.6,48.2,29.91,NW,325,5.0,13.0,95,0.01,,,0.01,WUHU216DAVISVP2,2013-05-27 23:37:00,
2013-05-27 19:42:00,49.6,48.2,29.91,West,264,2.0,15.0,95,0.00,,,0.01,WUHU216DAVISVP2,2013-05-27 23:42:00,
2013-05-27 19:47:00,49.5,48.4,29.91,WNW,288,3.0,15.0,96,0.00,,,0.01,WUHU216DAVISVP2,2013-05-27 23:47:00,
2013-05-27 19:52:00,49.5,48.4,29.92,West,259,3.0,15.0,96,0.00,,,0.01,WUHU216DAVISVP2,2013-05-27 23:52:00,
2013-05-27 19:57:00,49.5,48.4,29.92,WNW,303,7.0,13.0,96,0.00,,,0.01,WUHU216DAVISVP2,2013-05-27 23:57:00,
2013-05-27 20:02:00,49.6,48.5,29.92,West,278,2.0,10.0,96,0.00,,,0.01,WUHU216DAVISVP2,2013-05-28 00:02:00,
2013-05-27 20:07:00,49.6,48.5,29.92,WNW,286,1.0,10.0,96,0.00,,,0.01,WUHU216DAVISVP2,2013-05-28 00:07:00,
2013-05-27 20:12:00,49.6,48.5,29.92,WNW,285,2.0,10.0,96,0.00,,,0.01,WUHU216DAVISVP2,2013-05-28 00:12:00,
2013-05-27 20:17:00,49.7,48.6,29.92,WNW,300,3.0,7.0,96,0.00,,,0.01,WUHU216DAVISVP2,2013-05-28 00:17:00,
2013-05-27 20:22:00,49.7,48.6,29.92,West,270,4.0,8.0,96,0.00,,,0.01,WUHU216DAVISVP2,2013-05-28 00:22:00,
2013-05-27 20:27:00,49.7,48.6,29.92,NW,323,6.0,8.0,96,0.00,,,0.01,WUHU216DAVISVP2,2013-05-28 00:27:00,
2013-05-27 20:32:00,49.7,48.6,29.91,WNW,295,6.0,11.0,96,0.00,,,0.01,WUHU216DAVISVP2,2013-05-28 00:32:00,
2013-05-27 20:37:00,49.7,48.6,29.91,West,280,6.0,12.0,96,0.00,,,0.01,WUHU216DAVISVP2,2013-05-28 00:37:00,
2013-05-27 20:42:00,49.7,48.6,29.91,NW,306,2.0,12.0,96,0.00,,,0.01,WUHU216DAVISVP2,2013-05-28 00:42:00,
2013-05-27 20:47:00,49.8,48.7,29.91,West,262,3.0,12.0,96,0.00,,,0.01,WUHU216DAVISVP2,2013-05-28 00:47:00,
2013-05-27 20:52:00,49.9,48.8,29.91,West,259,4.0,12.0,96,0.00,,,0.01,WUHU216DAVISVP2,2013-05-28 00:52:00,
2013-05-27 20:57:00,49.9,48.8,29.91,West,270,3.0,12.0,96,0.00,,,0.01,WUHU216DAVISVP2,2013-05-28 00:57:00,
2013-05-27 21:02:00,49.9,48.8,29.92,West,263,1.0,12.0,96,0.00,,,0.01,WUHU216DAVISVP2,2013-05-28 01:02:00,
2013-05-27 21:07:00,49.9,48.8,29.91,West,269,3.0,12.0,96,0.00,,,0.01,WUHU216DAVISVP2,2013-05-28 01:07:00,
2013-05-27 21:12:00,49.9,48.8,29.91,WNW,291,3.0,9.0,96,0.00,,,0.01,WUHU216DAVISVP2,2013-05-28 01:12:00,
2013-05-27 21:17:00,49.9,48.8,29.91,WNW,300,0.0,9.0,96,0.00,,,0.01,WUHU216DAVISVP2,2013-05-28 01:17:00,
2013-05-27 21:22:00,49.9,48.8,29.90,WNW,287,1.0,9.0,96,0.00,,,0.01,WUHU216DAVISVP2,2013-05-28 01:22:00,
2013-05-27 21:27:00,49.9,49.1,29.90,West,263,4.0,9.0,97,0.00,,,0.01,WUHU216DAVISVP2,2013-05-28 01:27:00,
2013-05-27 21:32:00,49.9,49.1,29.90,WSW,252,3.0,10.0,97,0.00,,,0.01,WUHU216DAVISVP2,2013-05-28 01:32:00,
2013-05-27 21:37:00,50.0,49.2,29.90,West,270,3.0,10.0,97,0.00,,,0.01,WUHU216DAVISVP2,2013-05-28 01:37:00,
2013-05-27 21:42:00,50.0,49.2,29.91,WSW,257,2.0,10.0,97,0.00,,,0.01,WUHU216DAVISVP2,2013-05-28 01:42:00,
2013-05-27 21:47:00,50.0,49.2,29.91,WNW,283,1.0,10.0,97,0.00,,,0.01,WUHU216DAVISVP2,2013-05-28 01:47:00,
2013-05-27 21:52:00,50.0,49.2,29.91,West,266,2.0,9.0,97,0.00,,,0.01,WUHU216DAVISVP2,2013-05-28 01:52:00,
2013-05-27 21:57:00,50.1,49.3,29.90,West,270,2.0,9.0,97,0.00,,,0.01,WUHU216DAVISVP2,2013-05-28 01:57:00,
2013-05-27 22:02:00,50.1,49.3,29.90,WSW,249,2.0,9.0,97,0.00,,,0.01,WUHU216DAVISVP2,2013-05-28 02:02:00,
2013-05-27 22:07:00,50.1,49.3,29.90,WSW,248,3.0,7.0,97,0.00,,,0.01,WUHU216DAVISVP2,2013-05-28 02:07:00,
2013-05-27 22:12:00,50.1,49.3,29.90,WNW,300,2.0,7.0,97,0.00,,,0.01,WUHU216DAVISVP2,2013-05-28 02:12:00,
2013-05-27 22:17:00,50.1,49.3,29.90,West,270,1.0,7.0,97,0.00,,,0.01,WUHU216DAVISVP2,2013-05-28 02:17:00,
2013-05-27 22:22:00,50.2,49.4,29.90,NW,315,2.0,9.0,97,0.00,,,0.01,WUHU216DAVISVP2,2013-05-28 02:22:00,
2013-05-27 22:27:00,50.2,49.4,29.90,WSW,257,2.0,9.0,97,0.00,,,0.01,WUHU216DAVISVP2,2013-05-28 02:27:00,
2013-05-27 22:32:00,50.3,49.5,29.90,West,273,1.0,8.0,97,0.00,,,0.01,WUHU216DAVISVP2,2013-05-28 02:32:00,
2013-05-27 22:37:00,50.3,49.7,29.90,WNW,301,6.0,8.0,98,0.00,,,0.01,WUHU216DAVISVP2,2013-05-28 02:37:00,
2013-05-27 22:42:00,50.3,49.7,29.90,NW,309,5.0,9.0,98,0.00,,,0.01,WUHU216DAVISVP2,2013-05-28 02:42:00,
2013-05-27 22:47:00,50.3,49.7,29.91,West,266,2.0,9.0,98,0.00,,,0.01,WUHU216DAVISVP2,2013-05-28 02:47:00,
2013-05-27 22:52:00,50.3,49.7,29.90,West,264,1.0,9.0,98,0.00,,,0.01,WUHU216DAVISVP2,2013-05-28 02:52:00,
2013-05-27 22:57:00,50.3,49.7,29.90,West,265,4.0,9.0,98,0.00,,,0.01,WUHU216DAVISVP2,2013-05-28 02:57:00,
2013-05-27 23:02:00,50.4,49.8,29.90,NW,318,2.0,8.0,98,0.00,,,0.01,WUHU216DAVISVP2,2013-05-28 03:02:00,
2013-05-27 23:07:00,50.4,49.8,29.90,NNW,339,3.0,8.0,98,0.00,,,0.01,WUHU216DAVISVP2,2013-05-28 03:07:00,
2013-05-27 23:12:00,50.4,49.8,29.90,WNW,300,3.0,8.0,98,0.00,,,0.01,WUHU216DAVISVP2,2013-05-28 03:12:00,
2013-05-27 23:17:00,50.5,49.9,29.89,NNW,329,5.0,8.0,98,0.00,,,0.01,WUHU216DAVISVP2,2013-05-28 03:17:00,
2013-05-27 23:22:00,50.5,49.9,29.89,WNW,291,3.0,8.0,98,0.00,,,0.01,WUHU216DAVISVP2,2013-05-28 03:22:00,
2013-05-27 23:27:00,50.5,49.9,29.89,West,267,2.0,8.0,98,0.00,,,0.01,WUHU216DAVISVP2,2013-05-28 03:27:00,
2013-05-27 23:32:00,50.5,49.9,29.89,WNW,284,4.0,8.0,98,0.00,,,0.01,WUHU216DAVISVP2,2013-05-28 03:32:00,
2013-05-27 23:37:00,50.5,49.9,29.89,WNW,293,4.0,8.0,98,0.00,,,0.01,WUHU216DAVISVP2,2013-05-28 03:37:00,
2013-05-27 23:42:00,50.6,50.0,29.89,West,273,4.0,8.0,98,0.00,,,0.01,WUHU216DAVISVP2,2013-05-28 03:42:00,
2013-05-27 23:47:00,50.6,50.0,29.88,West,267,3.0,9.0,98,0.00,,,0.01,WUHU216DAVISVP2,2013-05-28 03:47:00,
2013-05-27 23:52:00,50.6,50.0,29.88,WNW,290,7.0,9.0,98,0.00,,,0.01,WUHU216DAVISVP2,2013-05-28 03:52:00,
2013-05-27 23:57:00,50.6,50.0,29.88,West,280,3.0,10.0,98,0.00,,,0.01,WUHU216DAVISVP2,2013-05-28 03:57:00,